Time;durP1;ratioP1;P1;durP2;ratioP2;P2;SDS_P1;SDS_P2;PMS_P1;PMS_P2;Temp;Humidity;BMP_temperature;BMP_pressure;BME280_temperature;BME280_humidity;BME280_pressure;Samples;Min_cycle;Max_cycle;Signal;HPM_P1;HPM_P2
2024/04/16 00:01:53;;;;;;;4.70;2.40;;;;;;;9.63;79.90;98349.56;107251;1260;67582;-37
2024/04/16 00:04:21;;;;;;;8.50;2.50;;;;;;;9.61;79.89;98354.34;107304;1257;72704;-37
2024/04/16 00:06:49;;;;;;;4.60;2.10;;;;;;;9.62;79.89;98348.95;107245;1257;61147;-37
2024/04/16 00:09:16;;;;;;;4.60;2.20;;;;;;;9.59;79.81;98355.48;107232;1256;60381;-37
2024/04/16 00:11:44;;;;;;;4.60;2.10;;;;;;;9.54;80.07;98354.84;107178;1261;74662;-37
2024/04/16 00:14:21;;;;;;;4.40;2.50;;;;;;;9.53;80.59;98336.13;107059;1261;66816;-37
2024/04/16 00:16:54;;;;;;;3.90;1.90;;;;;;;9.53;80.16;98315.80;107079;1262;71433;-38
2024/04/16 00:19:21;;;;;;;7.30;2.20;;;;;;;9.58;80.06;98310.02;106969;1261;62673;-38
2024/04/16 00:21:49;;;;;;;4.80;1.90;;;;;;;9.69;79.91;98302.89;107136;1258;61110;-38
2024/04/16 00:24:16;;;;;;;5.80;1.90;;;;;;;9.74;79.95;98289.23;107233;1260;74669;-38
2024/04/16 00:26:44;;;;;;;4.60;2.20;;;;;;;9.79;80.22;98275.89;107197;1260;66326;-38
2024/04/16 00:29:12;;;;;;;4.70;2.30;;;;;;;9.83;80.19;98266.39;107270;1257;72044;-38
2024/04/16 00:31:39;;;;;;;7.60;2.80;;;;;;;9.86;79.88;98238.24;107232;1257;61308;-38
2024/04/16 00:34:07;;;;;;;8.60;2.00;;;;;;;9.89;79.42;98223.16;107294;1259;60055;-38
2024/04/16 00:36:34;;;;;;;7.00;2.50;;;;;;;9.94;79.26;98195.88;107220;1257;74657;-38
2024/04/16 00:39:02;;;;;;;5.60;2.20;;;;;;;9.93;79.12;98177.02;107263;1255;66405;-38
2024/04/16 00:41:30;;;;;;;5.00;2.50;;;;;;;9.87;79.41;98169.57;107226;1260;72710;-38
2024/04/16 00:43:57;;;;;;;6.30;2.20;;;;;;;9.84;79.45;98162.59;107220;1257;61390;-38
2024/04/16 00:46:24;;;;;;;5.20;2.20;;;;;;;9.85;79.32;98172.04;107243;1256;61268;-38
2024/04/16 00:48:52;;;;;;;7.20;2.40;;;;;;;9.90;79.06;98168.65;107239;1260;74653;-38
2024/04/16 00:51:19;;;;;;;8.90;2.30;;;;;;;9.90;78.79;98166.24;107292;1255;66719;-38
2024/04/16 00:53:47;;;;;;;5.60;2.20;;;;;;;9.85;78.62;98200.34;107173;1258;71440;-38
2024/04/16 00:56:14;;;;;;;7.20;2.60;;;;;;;9.78;78.68;98234.27;107127;1257;61152;-38
2024/04/16 00:58:41;;;;;;;5.30;2.50;;;;;;;9.78;79.38;98233.27;107164;1258;61097;-38
2024/04/16 01:01:09;;;;;;;10.70;2.50;;;;;;;9.86;79.37;98234.06;107334;1255;74666;-38
2024/04/16 01:03:36;;;;;;;5.60;2.20;;;;;;;9.94;79.25;98220.80;107054;1256;67622;-38
2024/04/16 01:06:04;;;;;;;4.50;2.30;;;;;;;9.97;79.36;98209.04;107238;1257;71467;-38
2024/04/16 01:08:32;;;;;;;3.60;2.40;;;;;;;10.00;79.57;98207.66;107392;1257;61206;-38
2024/04/16 01:10:59;;;;;;;5.20;2.50;;;;;;;9.98;79.32;98189.16;107273;1257;61232;-38
2024/04/16 01:13:27;;;;;;;4.60;2.10;;;;;;;9.90;78.77;98165.31;107352;1259;75075;-38
2024/04/16 01:15:54;;;;;;;7.80;2.30;;;;;;;9.82;78.52;98142.80;107365;1257;67889;-38
2024/04/16 01:18:22;;;;;;;6.20;2.10;;;;;;;9.68;78.64;98137.05;107295;1257;71754;-38
2024/04/16 01:20:49;;;;;;;6.80;2.10;;;;;;;9.55;79.44;98147.28;107230;1257;61200;-38
2024/04/16 01:23:17;;;;;;;5.30;2.70;;;;;;;9.49;79.98;98180.95;107197;1257;61248;-38
2024/04/16 01:25:44;;;;;;;4.60;2.10;;;;;;;9.49;80.30;98208.63;107189;1257;74585;-38
2024/04/16 01:28:12;;;;;;;6.60;2.50;;;;;;;9.53;80.30;98215.77;107153;1256;67910;-38
2024/04/16 01:30:39;;;;;;;7.50;2.30;;;;;;;9.60;80.47;98176.05;107201;1257;72684;-38
2024/04/16 01:33:08;;;;;;;4.80;2.20;;;;;;;9.60;80.54;98158.59;107231;1257;61187;-38
2024/04/16 01:35:36;;;;;;;4.40;2.20;;;;;;;9.57;80.69;98154.33;107262;1257;61218;-38
2024/04/16 01:38:03;;;;;;;5.60;2.00;;;;;;;9.42;80.65;98153.35;107279;1257;74734;-38
2024/04/16 01:40:31;;;;;;;9.50;2.50;;;;;;;9.54;80.71;98178.29;107278;1256;66317;-38
2024/04/16 01:42:58;;;;;;;6.70;2.10;;;;;;;9.63;80.43;98186.27;107347;1259;72693;-38
2024/04/16 01:45:26;;;;;;;4.80;2.10;;;;;;;9.66;80.41;98196.04;107219;1258;61167;-38
2024/04/16 01:47:53;;;;;;;6.20;2.30;;;;;;;9.66;80.56;98214.73;107264;1257;60267;-38
2024/04/16 01:50:21;;;;;;;5.90;2.30;;;;;;;9.70;80.60;98219.48;107245;1258;74721;-38
2024/04/16 01:52:48;;;;;;;5.00;2.00;;;;;;;9.73;80.13;98223.96;107256;1257;67595;-38
2024/04/16 01:55:16;;;;;;;6.90;2.40;;;;;;;9.80;79.96;98230.27;107252;1256;72372;-38
2024/04/16 01:57:43;;;;;;;4.80;2.10;;;;;;;9.87;79.45;98239.02;107256;1257;61247;-38
2024/04/16 02:00:11;;;;;;;6.70;2.60;;;;;;;9.85;79.12;98257.96;107267;1260;61066;-38
2024/04/16 02:02:39;;;;;;;6.50;2.00;;;;;;;9.80;79.17;98288.33;107368;1256;73421;-37
2024/04/16 02:05:07;;;;;;;3.80;2.10;;;;;;;9.72;79.68;98294.95;107255;1258;67592;-37
2024/04/16 02:07:34;;;;;;;5.00;2.30;;;;;;;9.64;79.88;98300.48;107309;1257;72748;-37
2024/04/16 02:10:02;;;;;;;6.30;1.90;;;;;;;9.59;79.91;98293.63;107258;1257;61736;-37
2024/04/16 02:12:29;;;;;;;5.40;2.20;;;;;;;9.61;80.09;98287.31;107274;1257;60676;-37
2024/04/16 02:14:57;;;;;;;4.20;2.40;;;;;;;9.60;80.34;98284.91;107254;1257;74654;-37
2024/04/16 02:17:24;;;;;;;4.50;2.00;;;;;;;9.60;80.71;98283.27;107284;1257;67602;-37
2024/04/16 02:19:52;;;;;;;5.50;2.40;;;;;;;9.63;80.98;98280.61;107245;1257;71429;-37
2024/04/16 02:22:19;;;;;;;6.60;2.00;;;;;;;9.66;81.20;98271.41;107244;1256;61384;-37
2024/04/16 02:24:47;;;;;;;5.20;1.90;;;;;;;9.76;81.21;98271.23;107327;1256;60075;-37
2024/04/16 02:27:14;;;;;;;3.60;2.30;;;;;;;9.88;80.82;98257.67;107274;1257;74745;-37
2024/04/16 02:29:42;;;;;;;4.00;2.20;;;;;;;9.96;80.66;98247.70;107235;1255;67686;-37
2024/04/16 02:32:09;;;;;;;3.80;2.30;;;;;;;10.00;80.45;98239.06;107221;1258;72974;-37
2024/04/16 02:34:37;;;;;;;6.80;2.30;;;;;;;10.00;80.12;98234.20;107255;1255;61218;-37
2024/04/16 02:37:04;;;;;;;4.80;2.10;;;;;;;10.02;80.09;98231.57;107283;1257;61343;-37
2024/04/16 02:39:31;;;;;;;8.00;2.20;;;;;;;10.10;79.91;98230.96;107248;1258;74617;-37
2024/04/16 02:41:59;;;;;;;2.70;2.00;;;;;;;10.17;79.64;98222.96;107267;1257;66299;-37
2024/04/16 02:44:26;;;;;;;5.00;2.10;;;;;;;10.17;79.68;98214.14;107266;1257;71475;-37
2024/04/16 02:46:53;;;;;;;6.00;2.50;;;;;;;10.14;79.64;98205.83;107248;1255;61186;-38
2024/04/16 02:49:21;;;;;;;8.10;2.30;;;;;;;10.09;79.70;98199.40;107241;1257;61079;-38
2024/04/16 02:51:48;;;;;;;4.90;2.30;;;;;;;10.07;79.87;98184.63;107297;1257;74687;-38
2024/04/16 02:54:16;;;;;;;5.20;2.30;;;;;;;10.10;79.66;98176.89;107118;1256;67599;-38
2024/04/16 02:56:43;;;;;;;6.40;2.40;;;;;;;10.08;79.83;98165.59;107193;1257;70068;-38
2024/04/16 02:59:10;;;;;;;5.90;2.90;;;;;;;10.03;80.07;98143.06;107223;1257;61230;-37
2024/04/16 03:01:38;;;;;;;4.80;3.00;;;;;;;9.93;80.03;98140.19;107259;1257;61272;-37
2024/04/16 03:04:05;;;;;;;4.00;3.00;;;;;;;9.86;80.23;98133.68;107237;1256;73798;-37
2024/04/16 03:06:33;;;;;;;7.30;3.10;;;;;;;9.86;80.25;98118.29;107243;1257;67935;-37
2024/04/16 03:09:00;;;;;;;8.10;3.50;;;;;;;9.82;80.50;98105.44;107255;1257;71095;-37
2024/04/16 03:11:28;;;;;;;6.70;3.90;;;;;;;9.73;80.81;98102.34;107198;1257;61109;-37
2024/04/16 03:13:56;;;;;;;4.80;3.20;;;;;;;9.63;81.18;98089.79;107155;1257;61089;-38
2024/04/16 03:16:23;;;;;;;7.50;3.50;;;;;;;9.59;81.30;98080.11;107139;1256;72432;-37
2024/04/16 03:18:51;;;;;;;8.20;3.80;;;;;;;9.58;81.53;98065.66;107234;1256;67631;-37
2024/04/16 03:21:18;;;;;;;6.60;3.80;;;;;;;9.54;81.91;98055.77;107218;1256;71418;-37
2024/04/16 03:23:49;;;;;;;7.70;3.80;;;;;;;9.48;82.13;98048.55;107277;1256;61156;-37
2024/04/16 03:26:17;;;;;;;6.30;3.90;;;;;;;9.42;82.19;98046.69;107228;1260;61088;-38
2024/04/16 03:28:44;;;;;;;8.80;3.90;;;;;;;9.41;82.23;98039.03;107246;1257;74760;-37
2024/04/16 03:31:12;;;;;;;6.30;3.90;;;;;;;9.41;82.38;98027.98;107253;1256;67591;-37
2024/04/16 03:33:39;;;;;;;6.40;4.00;;;;;;;9.34;82.74;98017.23;107264;1258;72685;-37
2024/04/16 03:36:07;;;;;;;8.40;4.50;;;;;;;9.29;83.19;98020.77;107260;1256;61234;-37
2024/04/16 03:38:35;;;;;;;9.70;4.40;;;;;;;9.31;83.41;98028.19;107386;1256;61119;-37
2024/04/16 03:41:02;;;;;;;7.50;4.30;;;;;;;9.39;83.44;98026.66;107214;1257;74656;-37
2024/04/16 03:43:31;;;;;;;9.30;4.00;;;;;;;9.40;83.51;98021.64;107371;1257;67590;-37
2024/04/16 03:46:03;;;;;;;5.90;4.20;;;;;;;9.37;83.64;98010.74;107234;1256;72692;-37
2024/04/16 03:48:31;;;;;;;7.70;4.20;;;;;;;9.32;83.72;97991.96;107249;1257;61136;-37
2024/04/16 03:50:58;;;;;;;7.10;3.50;;;;;;;9.32;83.59;97984.92;107228;1256;61028;-37
2024/04/16 03:53:26;;;;;;;8.40;3.70;;;;;;;9.34;83.74;97989.88;107221;1256;74697;-37
2024/04/16 03:55:58;;;;;;;6.10;3.40;;;;;;;9.31;83.98;97994.04;107235;1257;67604;-37
2024/04/16 03:58:27;;;;;;;6.30;3.10;;;;;;;9.28;84.19;98002.31;107201;1258;72738;-37
2024/04/16 04:01:00;;;;;;;7.10;3.60;;;;;;;9.29;84.28;98016.14;107257;1256;62484;-37
2024/04/16 04:03:29;;;;;;;6.80;3.10;;;;;;;9.38;84.19;98031.08;107232;1256;61109;-37
2024/04/16 04:05:57;;;;;;;5.70;2.80;;;;;;;9.44;84.36;98068.18;107276;1256;74658;-37
2024/04/16 04:08:25;;;;;;;4.30;3.10;;;;;;;9.51;84.79;98106.61;106509;1256;1002989;-37
2024/04/16 04:10:53;;;;;;;7.10;3.30;;;;;;;9.58;84.83;98138.33;107338;1256;72706;-37
2024/04/16 04:13:21;;;;;;;5.10;2.90;;;;;;;9.68;84.91;98151.27;107278;1257;61323;-37
2024/04/16 04:15:48;;;;;;;5.90;3.10;;;;;;;9.83;84.52;98153.30;107245;1256;61141;-37
2024/04/16 04:18:16;;;;;;;4.70;3.10;;;;;;;9.95;84.31;98153.95;107186;1256;74708;-37
2024/04/16 04:20:46;;;;;;;7.70;3.00;;;;;;;10.01;83.92;98162.27;107259;1260;67641;-37
2024/04/16 04:23:14;;;;;;;5.20;3.10;;;;;;;9.96;83.66;98155.91;107283;1256;71733;-37
2024/04/16 04:25:41;;;;;;;6.70;3.80;;;;;;;10.07;83.75;98171.39;107285;1256;61203;-37
2024/04/16 04:31:21;;;;;;;5.30;3.50;;;;;;;10.22;82.81;98180.33;104112;1291;600962;-38
2024/04/16 04:33:48;;;;;;;7.60;3.90;;;;;;;10.23;82.64;98174.91;106599;1271;60089;-38
2024/04/16 04:36:16;;;;;;;7.40;3.60;;;;;;;10.25;82.60;98165.41;106622;1265;59265;-38
2024/04/16 04:38:43;;;;;;;5.20;3.40;;;;;;;10.22;82.32;98160.98;107297;1253;73127;-38
2024/04/16 04:41:11;;;;;;;5.80;3.10;;;;;;;10.23;82.15;98162.08;107309;1253;67764;-38
2024/04/16 04:43:39;;;;;;;6.80;3.50;;;;;;;10.26;81.86;98158.13;107218;1251;162831;-38
2024/04/16 04:46:07;;;;;;;8.80;3.90;;;;;;;10.22;81.67;98158.52;107468;1253;60059;-38
2024/04/16 04:48:34;;;;;;;5.90;3.30;;;;;;;10.15;81.91;98164.21;107538;1253;60023;-38
2024/04/16 04:51:02;;;;;;;8.10;4.10;;;;;;;10.13;82.13;98164.66;107552;1251;71868;-38
2024/04/16 04:53:29;;;;;;;8.50;3.70;;;;;;;10.10;81.97;98153.67;107553;1257;68037;-38
2024/04/16 04:55:57;;;;;;;6.60;3.40;;;;;;;10.08;81.91;98147.48;107601;1251;73086;-38
2024/04/16 04:58:24;;;;;;;5.80;3.30;;;;;;;10.00;82.13;98146.30;107580;1256;60861;-38
2024/04/16 05:00:52;;;;;;;6.20;4.00;;;;;;;9.92;82.40;98140.50;107574;1251;62196;-38
2024/04/16 05:03:19;;;;;;;6.90;3.80;;;;;;;9.85;82.69;98137.55;107586;1251;73066;-38
2024/04/16 05:05:47;;;;;;;8.30;3.80;;;;;;;9.85;82.84;98136.46;107662;1251;66707;-38
2024/04/16 05:08:14;;;;;;;7.30;4.00;;;;;;;9.90;83.20;98128.89;107651;1253;71463;-38
2024/04/16 05:10:41;;;;;;;8.70;3.90;;;;;;;9.85;83.20;98118.52;107568;1253;60252;-38
2024/04/16 05:13:09;;;;;;;8.50;4.10;;;;;;;9.78;83.68;98100.17;107532;1251;60356;-38
2024/04/16 05:15:37;;;;;;;6.20;4.10;;;;;;;9.76;84.18;98091.44;107585;1251;72618;-38
2024/04/16 05:18:05;;;;;;;6.60;4.00;;;;;;;9.79;84.16;98097.09;107618;1251;67313;-38
2024/04/16 05:20:32;;;;;;;6.40;4.00;;;;;;;9.80;84.46;98104.59;107619;1251;74897;-38
2024/04/16 05:23:00;;;;;;;7.60;4.40;;;;;;;9.76;84.71;98104.35;107549;1253;60441;-38
2024/04/16 05:25:28;;;;;;;7.80;3.90;;;;;;;9.75;84.94;98100.25;107598;1256;60438;-38
2024/04/16 05:27:55;;;;;;;8.10;4.00;;;;;;;9.80;84.94;98097.01;107557;1251;74302;-38
2024/04/16 05:30:23;;;;;;;7.90;3.80;;;;;;;9.88;85.05;98099.58;107555;1251;68040;-38
2024/04/16 05:32:52;;;;;;;5.90;4.20;;;;;;;9.92;85.30;98097.95;107614;1252;71514;-38
2024/04/16 05:35:21;;;;;;;9.00;4.60;;;;;;;9.98;85.75;98106.93;107571;1253;59599;-38
2024/04/16 05:37:49;;;;;;;6.30;4.00;;;;;;;10.06;85.82;98118.16;107494;1251;60480;-38
2024/04/16 05:40:17;;;;;;;7.10;3.50;;;;;;;10.17;85.43;98117.64;107602;1253;74193;-38
2024/04/16 05:42:44;;;;;;;9.10;3.40;;;;;;;10.29;84.87;98118.35;107594;1252;69039;-38
2024/04/16 05:45:13;;;;;;;7.30;3.90;;;;;;;10.33;84.34;98114.48;107649;1253;72151;-38
2024/04/16 05:47:40;;;;;;;7.60;4.00;;;;;;;10.33;84.46;98106.43;107538;1253;60959;-38
2024/04/16 05:50:08;;;;;;;9.80;3.60;;;;;;;10.37;84.77;98100.32;107611;1256;60388;-38
2024/04/16 05:52:36;;;;;;;6.70;3.40;;;;;;;10.48;84.27;98099.00;107650;1252;76123;-38
2024/04/16 05:55:05;;;;;;;6.90;3.30;;;;;;;10.56;83.71;98094.17;107547;1253;66962;-38
2024/04/16 05:57:32;;;;;;;5.60;3.50;;;;;;;10.59;83.38;98090.54;107621;1253;71498;-38
2024/04/16 06:00:00;;;;;;;5.80;3.30;;;;;;;10.62;83.45;98085.49;107572;1251;60442;-38
2024/04/16 06:02:31;;;;;;;8.40;3.80;;;;;;;10.65;82.87;98081.39;107605;1252;60981;-38
2024/04/16 06:04:58;;;;;;;5.60;3.20;;;;;;;10.67;82.88;98081.84;107686;1255;72667;-38
2024/04/16 06:07:27;;;;;;;3.40;3.00;;;;;;;10.72;82.77;98070.84;107652;1251;66587;-38
2024/04/16 06:09:54;;;;;;;6.40;3.50;;;;;;;10.75;83.12;98063.16;107570;1253;73090;-38
2024/04/16 06:12:22;;;;;;;5.20;3.30;;;;;;;10.77;83.06;98069.27;107561;1253;60338;-38
2024/04/16 06:14:49;;;;;;;7.30;3.30;;;;;;;10.76;82.58;98070.67;107665;1253;59272;-38
2024/04/16 06:17:17;;;;;;;6.40;3.20;;;;;;;10.80;82.48;98068.73;107591;1253;73042;-38
2024/04/16 06:19:45;;;;;;;5.90;3.40;;;;;;;10.86;82.22;98057.55;107650;1253;66568;-38
2024/04/16 06:22:13;;;;;;;5.40;3.60;;;;;;;10.85;82.69;98049.64;107579;1253;74866;-38
2024/04/16 06:24:40;;;;;;;6.10;4.40;;;;;;;10.85;83.02;98052.74;107662;1253;59219;-38
2024/04/16 06:27:08;;;;;;;6.20;3.70;;;;;;;10.87;83.27;98056.92;107539;1253;62164;-38
2024/04/16 06:29:37;;;;;;;7.40;3.90;;;;;;;10.97;83.18;98065.10;107554;1253;76114;-38
2024/04/16 06:32:05;;;;;;;6.60;4.00;;;;;;;11.04;83.42;98058.95;107547;1253;68095;-38
2024/04/16 06:34:33;;;;;;;6.50;3.70;;;;;;;11.12;83.81;98059.16;107554;1253;74922;-38
2024/04/16 06:37:00;;;;;;;7.40;4.00;;;;;;;11.17;83.36;98064.80;107555;1254;60303;-38
2024/04/16 06:39:28;;;;;;;4.20;3.20;;;;;;;11.18;83.01;98062.23;107558;1257;62198;-38
2024/04/16 06:42:00;;;;;;;6.80;3.90;;;;;;;11.25;83.17;98064.21;107602;1251;73959;-38
2024/04/16 06:44:28;;;;;;;8.20;3.90;;;;;;;11.34;82.97;98071.30;107507;1252;67758;-38
2024/04/16 06:46:55;;;;;;;6.30;3.70;;;;;;;11.39;83.31;98062.44;107527;1253;74921;-38
2024/04/16 06:49:23;;;;;;;10.00;3.70;;;;;;;11.42;82.86;98064.77;107576;1251;59777;-38
2024/04/16 06:51:50;;;;;;;9.50;4.00;;;;;;;11.37;82.73;98069.65;107533;1257;59296;-38
2024/04/16 06:54:18;;;;;;;5.10;3.60;;;;;;;11.39;83.09;98077.32;107566;1251;74859;-38
2024/04/16 06:56:45;;;;;;;4.50;3.30;;;;;;;11.43;83.32;98075.75;107584;1253;67817;-38
2024/04/16 06:59:14;;;;;;;6.30;3.30;;;;;;;11.47;83.61;98075.59;107591;1253;71515;-37
2024/04/16 07:01:41;;;;;;;4.60;3.30;;;;;;;11.51;83.93;98079.05;107591;1253;59340;-37
2024/04/16 07:04:10;;;;;;;4.60;3.70;;;;;;;11.54;83.80;98075.39;107628;1253;60394;-37
2024/04/16 07:06:38;;;;;;;8.20;3.50;;;;;;;11.61;83.64;98073.09;107592;1253;75675;-37
2024/04/16 07:09:05;;;;;;;6.60;3.90;;;;;;;11.63;83.34;98078.04;107570;1253;69656;-37
2024/04/16 07:11:35;;;;;;;7.20;3.70;;;;;;;11.61;83.94;98083.64;107633;1254;75630;-37
2024/04/16 07:14:02;;;;;;;6.30;3.50;;;;;;;11.64;84.58;98083.00;107723;1253;60398;-37
2024/04/16 07:16:31;;;;;;;5.40;3.30;;;;;;;11.71;84.60;98082.66;107591;1253;60411;-37
2024/04/16 07:18:58;;;;;;;6.30;3.30;;;;;;;11.82;84.03;98082.92;107598;1251;72747;-37
2024/04/16 07:21:26;;;;;;;6.30;3.20;;;;;;;11.90;84.26;98081.86;107674;1253;67838;-37
2024/04/16 07:23:54;;;;;;;5.80;3.80;;;;;;;11.95;84.29;98080.97;107579;1253;71509;-37
2024/04/16 07:26:22;;;;;;;6.40;4.50;;;;;;;11.97;84.24;98084.59;107570;1253;61028;-37
2024/04/16 07:28:51;;;;;;;6.60;4.20;;;;;;;11.97;83.70;98085.21;107585;1253;60569;-37
2024/04/16 07:31:18;;;;;;;6.10;3.90;;;;;;;11.99;83.69;98080.46;107539;1254;75129;-37
2024/04/16 07:33:50;;;;;;;7.10;4.00;;;;;;;12.07;83.57;98079.09;107616;1252;68229;-37
2024/04/16 07:36:17;;;;;;;7.00;4.30;;;;;;;12.13;83.73;98078.96;107554;1257;71517;-37
2024/04/16 07:38:45;;;;;;;6.90;4.60;;;;;;;12.18;83.56;98077.54;107579;1253;60549;-36
2024/04/16 07:41:14;;;;;;;6.50;4.50;;;;;;;12.20;83.53;98068.20;107565;1253;60297;-36
2024/04/16 07:43:41;;;;;;;7.50;4.20;;;;;;;12.28;83.75;98065.88;107555;1252;74340;-37
2024/04/16 07:46:09;;;;;;;9.10;4.80;;;;;;;12.40;83.84;98067.94;107565;1253;66927;-36
2024/04/16 07:48:36;;;;;;;8.00;5.00;;;;;;;12.47;83.76;98070.06;107622;1253;71528;-36
2024/04/16 07:51:05;;;;;;;7.40;4.90;;;;;;;12.48;83.93;98068.80;107607;1253;62262;-36
2024/04/16 07:53:32;;;;;;;7.60;4.90;;;;;;;12.53;84.37;98069.30;107580;1257;60549;-36
2024/04/16 07:56:00;;;;;;;8.80;4.80;;;;;;;12.65;84.14;98066.70;107564;1253;72708;-37
2024/04/16 07:58:27;;;;;;;7.50;5.00;;;;;;;12.76;83.66;98062.23;107340;1253;67242;-37
2024/04/16 08:00:55;;;;;;;10.50;5.50;;;;;;;12.84;84.06;98057.33;107585;1257;71501;-37
2024/04/16 08:03:22;;;;;;;11.10;5.40;;;;;;;12.94;84.00;98057.20;107542;1253;59708;-36
2024/04/16 08:05:51;;;;;;;7.20;4.80;;;;;;;13.06;84.19;98048.36;107582;1253;60445;-37
2024/04/16 08:08:19;;;;;;;9.90;5.00;;;;;;;13.24;83.49;98042.09;107583;1253;74284;-37
2024/04/16 08:10:55;;;;;;;9.80;5.20;;;;;;;13.39;82.75;98040.88;107569;1253;66448;-37
2024/04/16 08:13:23;;;;;;;11.70;6.20;;;;;;;13.45;81.83;98047.17;107564;1257;72798;-36
2024/04/16 08:15:51;;;;;;;12.30;5.40;;;;;;;13.48;81.79;98045.59;107611;1253;59349;-37
2024/04/16 08:18:18;;;;;;;9.30;5.10;;;;;;;13.51;81.90;98039.02;107557;1253;60432;-37
2024/04/16 08:20:48;;;;;;;14.30;5.50;;;;;;;13.65;82.30;98038.19;107561;1253;72712;-37
2024/04/16 08:23:16;;;;;;;10.00;5.80;;;;;;;13.83;80.38;98037.29;107609;1253;69744;-37
2024/04/16 08:25:43;;;;;;;8.00;4.90;;;;;;;14.00;80.85;98029.55;107590;1253;72228;-37
2024/04/16 08:28:11;;;;;;;10.00;4.90;;;;;;;14.18;81.00;98028.16;107561;1253;60418;-37
2024/04/16 08:30:38;;;;;;;8.70;4.90;;;;;;;14.36;80.09;98032.06;107591;1252;61833;-37
2024/04/16 08:33:06;;;;;;;8.20;4.90;;;;;;;14.49;78.10;98017.44;107544;1253;76000;-37
2024/04/16 08:35:34;;;;;;;9.00;5.40;;;;;;;14.61;77.49;98019.25;107584;1258;67011;-37
2024/04/16 08:38:01;;;;;;;7.10;4.70;;;;;;;14.64;77.23;98019.42;107633;1253;74935;-37
2024/04/16 08:40:31;;;;;;;10.60;4.90;;;;;;;14.69;77.21;98016.44;107655;1254;60336;-37
2024/04/16 08:42:59;;;;;;;7.80;4.20;;;;;;;14.78;76.37;98012.84;107587;1253;61098;-37
2024/04/16 08:45:27;;;;;;;10.70;4.30;;;;;;;14.93;75.67;98014.95;107568;1253;77320;-37
2024/04/16 08:47:56;;;;;;;9.50;4.10;;;;;;;15.11;75.53;98009.59;107632;1253;67647;-37
2024/04/16 08:50:24;;;;;;;11.30;3.90;;;;;;;15.27;75.80;98004.49;107418;1254;72845;-37
2024/04/16 08:52:52;;;;;;;9.80;4.40;;;;;;;15.47;75.42;97995.70;107557;1254;62259;-37
2024/04/16 08:55:20;;;;;;;9.10;3.60;;;;;;;15.66;74.19;97996.08;107605;1253;61205;-37
2024/04/16 08:57:47;;;;;;;8.40;3.40;;;;;;;15.83;74.12;98002.14;107568;1259;73611;-37
2024/04/16 09:00:15;;;;;;;10.80;4.10;;;;;;;15.98;73.34;98003.11;107572;1253;66416;-37
2024/04/16 09:02:44;;;;;;;8.70;3.50;;;;;;;16.05;71.17;98016.83;107569;1253;72080;-37
2024/04/16 09:05:11;;;;;;;11.10;4.10;;;;;;;16.04;70.73;98016.70;107553;1253;61344;-38
2024/04/16 09:07:40;;;;;;;9.80;3.90;;;;;;;16.08;71.67;98008.33;107595;1257;61135;-37
2024/04/16 09:10:19;;;;;;;7.50;3.40;;;;;;;16.20;71.79;98004.21;107541;1253;75024;-37
2024/04/16 09:12:50;;;;;;;8.90;3.40;;;;;;;16.32;70.43;98002.25;107593;1253;69728;-37
2024/04/16 09:15:18;;;;;;;7.10;3.40;;;;;;;16.36;70.58;98001.60;107564;1253;73063;-37
2024/04/16 09:17:46;;;;;;;8.40;3.50;;;;;;;16.40;70.98;98001.20;107625;1253;61232;-37
2024/04/16 09:20:17;;;;;;;9.80;3.80;;;;;;;16.43;70.35;97998.61;107585;1253;61103;-37
2024/04/16 09:22:46;;;;;;;7.80;3.40;;;;;;;16.46;70.35;97995.02;107669;1252;73517;-37
2024/04/16 09:25:14;;;;;;;8.90;3.70;;;;;;;16.62;69.67;97994.36;107638;1253;68967;-37
2024/04/16 09:27:46;;;;;;;6.90;3.10;;;;;;;16.76;68.78;97992.27;107595;1251;72808;-37
2024/04/16 09:30:13;;;;;;;9.60;3.90;;;;;;;16.80;69.19;97994.65;107600;1253;62227;-37
2024/04/16 09:32:44;;;;;;;7.60;3.70;;;;;;;16.80;69.64;97995.41;107537;1253;62144;-37
2024/04/16 09:35:12;;;;;;;10.90;3.90;;;;;;;16.83;69.87;97995.67;107558;1253;75596;-37
2024/04/16 09:37:39;;;;;;;9.10;3.40;;;;;;;16.91;69.50;97991.52;107574;1253;66865;-38
2024/04/16 09:40:10;;;;;;;8.80;3.10;;;;;;;17.09;69.33;97991.40;107547;1253;71897;-37
2024/04/16 09:42:40;;;;;;;5.40;2.50;;;;;;;17.26;68.88;97991.91;107510;1253;61247;-39
2024/04/16 09:45:07;;;;;;;5.90;2.90;;;;;;;17.29;67.63;97991.36;107607;1252;61163;-39
2024/04/16 09:47:35;;;;;;;5.70;2.60;;;;;;;17.35;67.33;97986.09;107370;1254;75033;-37
2024/04/16 09:50:04;;;;;;;7.20;3.30;;;;;;;17.36;67.78;97984.65;107562;1252;70281;-36
2024/04/16 09:52:53;;;;;;;8.30;3.70;;;;;;;17.35;66.91;97988.96;107590;1253;71520;-37
2024/04/16 09:55:21;;;;;;;;;;;;;;;17.30;66.69;97990.48;107616;1253;62542;-37
2024/04/16 09:57:50;;;;;;;6.10;2.70;;;;;;;17.25;66.79;97984.81;107617;1253;61136;-38
2024/04/16 10:00:18;;;;;;;7.20;3.40;;;;;;;17.20;66.80;97983.10;107579;1253;74757;-38
2024/04/16 10:02:46;;;;;;;5.90;3.10;;;;;;;17.17;67.29;97983.27;107668;1256;67146;-38
2024/04/16 10:05:14;;;;;;;8.30;3.60;;;;;;;17.18;67.14;97986.84;107609;1253;71548;-38
2024/04/16 10:07:44;;;;;;;8.70;3.30;;;;;;;17.22;66.48;97983.67;107594;1253;61147;-37
2024/04/16 10:10:12;;;;;;;6.20;3.30;;;;;;;17.27;66.74;97982.65;107630;1253;61221;-38
2024/04/16 10:12:41;;;;;;;9.10;3.10;;;;;;;17.31;66.20;97980.24;107646;1254;76938;-37
2024/04/16 10:15:12;;;;;;;8.10;3.10;;;;;;;17.38;66.04;97973.08;107442;1253;69879;-37
2024/04/16 10:17:52;;;;;;;7.20;3.20;;;;;;;17.43;66.11;97969.40;107629;1257;71620;-38
2024/04/16 10:20:23;;;;;;;6.50;3.10;;;;;;;17.46;65.71;97975.13;107583;1257;61859;-38
2024/04/16 10:22:55;;;;;;;6.40;3.70;;;;;;;17.44;66.21;97972.96;107579;1253;61010;-38
2024/04/16 10:25:33;;;;;;;8.60;4.20;;;;;;;17.45;66.68;97976.95;107558;1254;73495;-37
2024/04/16 10:28:01;;;;;;;7.40;4.10;;;;;;;17.44;64.88;97979.00;107543;1253;68854;-38
2024/04/16 10:30:35;;;;;;;7.80;3.50;;;;;;;17.36;65.68;97975.58;107493;1258;72831;-38
2024/04/16 10:33:04;;;;;;;8.70;3.20;;;;;;;17.45;65.93;97980.62;107562;1253;63846;-38
2024/04/16 10:35:33;;;;;;;9.70;4.00;;;;;;;17.50;66.12;97979.05;107358;1254;61691;-38
2024/04/16 10:38:04;;;;;;;9.70;3.70;;;;;;;17.50;65.35;97981.57;107620;1253;75033;-38
2024/04/16 10:40:35;;;;;;;9.90;3.70;;;;;;;17.46;65.44;97973.23;107494;1252;66740;-38
2024/04/16 10:43:02;;;;;;;12.80;4.00;;;;;;;17.40;65.03;97968.02;107420;1254;71488;-38
2024/04/16 10:45:29;;;;;;;9.90;4.00;;;;;;;17.32;65.29;97965.77;107589;1258;61324;-38
2024/04/16 10:47:57;;;;;;;10.40;4.10;;;;;;;17.25;65.95;97964.39;107636;1253;60968;-38
2024/04/16 10:50:25;;;;;;;6.40;3.80;;;;;;;17.22;66.33;97953.69;107551;1253;75076;-38
2024/04/16 10:52:53;;;;;;;7.70;3.20;;;;;;;17.28;66.76;97949.28;107566;1253;68541;-39
2024/04/16 10:55:21;;;;;;;8.80;3.50;;;;;;;17.37;67.10;97942.66;107589;1253;71542;-38
2024/04/16 10:57:49;;;;;;;9.30;3.80;;;;;;;17.48;67.04;97941.14;107575;1253;61231;-38
2024/04/16 11:00:17;;;;;;;7.30;4.00;;;;;;;17.56;66.55;97936.50;107563;1253;61195;-38
2024/04/16 11:02:45;;;;;;;7.70;3.80;;;;;;;17.63;65.46;97929.73;107595;1253;75068;-38
2024/04/16 11:05:17;;;;;;;7.20;3.40;;;;;;;17.69;65.10;97928.36;107677;1254;67565;-38
2024/04/16 11:07:45;;;;;;;9.40;3.80;;;;;;;17.76;64.39;97931.27;107508;1253;74825;-38
2024/04/16 11:10:12;;;;;;;7.90;3.80;;;;;;;17.82;64.46;97930.66;107492;1254;61233;-38
2024/04/16 11:12:40;;;;;;;7.50;3.40;;;;;;;17.90;64.31;97930.65;107541;1259;61082;-38
2024/04/16 11:15:08;;;;;;;7.00;3.30;;;;;;;18.01;64.23;97924.81;107424;1253;74014;-38
2024/04/16 11:17:36;;;;;;;6.20;3.20;;;;;;;18.09;63.10;97924.98;107700;1254;70180;-39
2024/04/16 11:20:05;;;;;;;6.50;3.20;;;;;;;18.16;62.99;97921.92;107465;1253;71092;-38
2024/04/16 11:22:32;;;;;;;9.50;3.00;;;;;;;18.27;62.53;97926.65;107620;1257;61222;-38
2024/04/16 11:25:00;;;;;;;8.50;3.30;;;;;;;18.38;62.13;97921.86;107609;1253;60956;-38
2024/04/16 11:27:31;;;;;;;10.10;2.80;;;;;;;18.50;61.66;97924.66;107586;1254;76939;-38
2024/04/16 11:30:02;;;;;;;8.30;3.20;;;;;;;18.60;61.02;97918.17;107571;1253;68399;-38
2024/04/16 11:32:31;;;;;;;7.90;2.80;;;;;;;18.72;60.92;97911.89;107585;1253;72298;-38
2024/04/16 11:34:58;;;;;;;6.50;2.40;;;;;;;18.84;61.22;97912.05;107663;1255;61342;-39